KACJ

Jimmy Carter Regional Airport

Americus, Georgia, USA
METAR KACJ 140415Z AUTO 05003KT 10SM -RA OVC007 13/10 A3020 RMK AO2
Observed Flight Rules
Nov-14 @ 04:15 UTC (34 minutes ago) Instrument Flight Rules
Wind Visibility Clouds Conditions
50° at 3 knots 10 miles
  • Overcast at 700' AGL
  • Light Rain
Temperatures Readings
Current 13°C / 55°F
Dewpoint 10°C / 50°F
Humidity 82%
Altimeter 30.2" Hg
Pressure 1023 hPa
Elevation 143
METAR KACJ 140415Z AUTO 05003KT 10SM -RA OVC007 13/10 A3020 RMK AO2
Observed Flight Rules
Nov-14 @ 04:15 UTC
(34 minutes ago)
IFR
Wind Visibility
50° at 3 knots 10 miles
Clouds
  • Overcast at 700' AGL
Conditions
  • Light Rain
Temperature Dewpoint
13°C / 55°F 10°C / 50°F
Humidity Altimeter Pressure
82% 30.2" Hg 1023 hPa